sensor_id;sensor_type;location;lat;lon;timestamp;pressure;altitude;pressure_sealevel;temperature;humidity
54122;BME280;40029;58.708;50.190;2024-02-04T00:02:04;97797.53;;;-10.15;75.42
54122;BME280;40029;58.708;50.190;2024-02-04T00:04:38;97780.59;;;-10.03;75.89
54122;BME280;40029;58.708;50.190;2024-02-04T00:07:10;97790.84;;;-10.00;75.55
54122;BME280;40029;58.708;50.190;2024-02-04T00:09:41;97785.78;;;-9.97;75.93
54122;BME280;40029;58.708;50.190;2024-02-04T00:12:14;97786.66;;;-9.94;75.62
54122;BME280;40029;58.708;50.190;2024-02-04T00:14:45;97789.22;;;-9.89;75.72
54122;BME280;40029;58.708;50.190;2024-02-04T00:17:35;97790.97;;;-9.86;75.51
54122;BME280;40029;58.708;50.190;2024-02-04T00:20:07;97792.69;;;-9.82;75.34
54122;BME280;40029;58.708;50.190;2024-02-04T00:22:57;97789.25;;;-9.86;75.58
54122;BME280;40029;58.708;50.190;2024-02-04T00:25:47;97794.41;;;-9.83;75.82
54122;BME280;40029;58.708;50.190;2024-02-04T00:28:18;97781.63;;;-9.78;76.66
54122;BME280;40029;58.708;50.190;2024-02-04T00:30:51;97791.03;;;-9.73;76.81
54122;BME280;40029;58.708;50.190;2024-02-04T00:33:26;97788.47;;;-9.74;76.49
54122;BME280;40029;58.708;50.190;2024-02-04T00:35:57;97785.91;;;-9.77;76.29
54122;BME280;40029;58.708;50.190;2024-02-04T00:38:28;97790.19;;;-9.75;76.75
54122;BME280;40029;58.708;50.190;2024-02-04T00:40:59;97792.72;;;-9.76;77.14
54122;BME280;40029;58.708;50.190;2024-02-04T00:43:31;97793.56;;;-9.76;76.91
54122;BME280;40029;58.708;50.190;2024-02-04T00:46:02;97790.25;;;-9.64;76.79
54122;BME280;40029;58.708;50.190;2024-02-04T00:48:33;97800.47;;;-9.64;76.41
54122;BME280;40029;58.708;50.190;2024-02-04T00:51:05;97796.25;;;-9.57;76.69
54122;BME280;40029;58.708;50.190;2024-02-04T00:53:36;97798.88;;;-9.46;76.88
54122;BME280;40029;58.708;50.190;2024-02-04T00:56:07;97809.97;;;-9.47;76.95
54122;BME280;40029;58.708;50.190;2024-02-04T00:58:38;97797.22;;;-9.38;77.44
54122;BME280;40029;58.708;50.190;2024-02-04T01:01:10;97808.34;;;-9.30;77.55
54122;BME280;40029;58.708;50.190;2024-02-04T01:03:41;97810.91;;;-9.30;77.34
54122;BME280;40029;58.708;50.190;2024-02-04T01:06:12;97809.19;;;-9.29;77.22
54122;BME280;40029;58.708;50.190;2024-02-04T01:08:43;97806.69;;;-9.23;76.21
54122;BME280;40029;58.708;50.190;2024-02-04T01:11:33;97800.66;;;-9.32;76.78
54122;BME280;40029;58.708;50.190;2024-02-04T01:14:05;97796.38;;;-9.34;76.98
54122;BME280;40029;58.708;50.190;2024-02-04T01:16:54;97793.84;;;-9.31;77.13
54122;BME280;40029;58.708;50.190;2024-02-04T01:19:25;97796.41;;;-9.26;77.21
54122;BME280;40029;58.708;50.190;2024-02-04T01:22:15;97797.31;;;-9.21;76.72
54122;BME280;40029;58.708;50.190;2024-02-04T01:24:46;97813.50;;;-9.22;76.75
54122;BME280;40029;58.708;50.190;2024-02-04T01:27:37;97809.22;;;-9.25;77.42
54122;BME280;40029;58.708;50.190;2024-02-04T01:30:09;97803.28;;;-9.18;77.04
54122;BME280;40029;58.708;50.190;2024-02-04T01:32:40;97813.56;;;-9.10;77.25
54122;BME280;40029;58.708;50.190;2024-02-04T01:35:11;97808.41;;;-9.19;77.29
54122;BME280;40029;58.708;50.190;2024-02-04T01:38:01;97801.56;;;-9.20;77.35
54122;BME280;40029;58.708;50.190;2024-02-04T01:40:32;97802.44;;;-9.15;77.33
54122;BME280;40029;58.708;50.190;2024-02-04T01:43:03;97804.16;;;-9.16;79.10
54122;BME280;40029;58.708;50.190;2024-02-04T01:45:34;97794.81;;;-9.09;79.15
54122;BME280;40029;58.708;50.190;2024-02-04T01:48:06;97795.72;;;-8.96;80.17
54122;BME280;40029;58.708;50.190;2024-02-04T01:50:38;97802.53;;;-9.00;79.40
54122;BME280;40029;58.708;50.190;2024-02-04T01:53:10;97802.44;;;-9.14;77.56
54122;BME280;40029;58.708;50.190;2024-02-04T01:55:41;97805.88;;;-9.15;76.96
54122;BME280;40029;58.708;50.190;2024-02-04T01:58:13;97805.03;;;-9.10;77.61
54122;BME280;40029;58.708;50.190;2024-02-04T02:00:45;97804.19;;;-9.06;77.68
54122;BME280;40029;58.708;50.190;2024-02-04T02:03:16;97805.09;;;-8.95;78.41
54122;BME280;40029;58.708;50.190;2024-02-04T02:05:47;97807.66;;;-8.95;78.40
54122;BME280;40029;58.708;50.190;2024-02-04T02:08:19;97805.09;;;-8.94;78.57
54122;BME280;40029;58.708;50.190;2024-02-04T02:10:57;97807.66;;;-8.92;77.89
54122;BME280;40029;58.708;50.190;2024-02-04T02:13:34;97805.97;;;-8.90;77.81
54122;BME280;40029;58.708;50.190;2024-02-04T02:16:13;97803.38;;;-8.93;77.99
54122;BME280;40029;58.708;50.190;2024-02-04T02:18:52;97799.94;;;-8.97;76.87
54122;BME280;40029;58.708;50.190;2024-02-04T02:21:44;97799.06;;;-9.06;77.66
54122;BME280;40029;58.708;50.190;2024-02-04T02:26:55;97805.06;;;-9.03;76.82
54122;BME280;40029;58.708;50.190;2024-02-04T02:29:29;97798.25;;;-8.99;77.86
54122;BME280;40029;58.708;50.190;2024-02-04T02:32:00;97801.63;;;-9.02;77.42
54122;BME280;40029;58.708;50.190;2024-02-04T02:34:34;97803.31;;;-9.13;76.23
54122;BME280;40029;58.708;50.190;2024-02-04T02:37:27;97803.28;;;-9.19;76.19
54122;BME280;40029;58.708;50.190;2024-02-04T02:42:38;97806.56;;;-9.45;76.00
54122;BME280;40029;58.708;50.190;2024-02-04T02:45:13;97804.88;;;-9.46;76.50
54122;BME280;40029;58.708;50.190;2024-02-04T02:47:47;97805.72;;;-9.41;76.94
54122;BME280;40029;58.708;50.190;2024-02-04T02:50:19;97804.03;;;-9.37;77.16
54122;BME280;40029;58.708;50.190;2024-02-04T02:52:51;97806.59;;;-9.36;77.01
54122;BME280;40029;58.708;50.190;2024-02-04T02:55:40;97804.06;;;-9.36;76.96
54122;BME280;40029;58.708;50.190;2024-02-04T02:58:30;97805.69;;;-9.47;77.27
54122;BME280;40029;58.708;50.190;2024-02-04T03:01:03;97805.72;;;-9.44;77.00
54122;BME280;40029;58.708;50.190;2024-02-04T03:03:35;97815.09;;;-9.47;77.70
54122;BME280;40029;58.708;50.190;2024-02-04T03:06:06;97808.31;;;-9.42;78.17
54122;BME280;40029;58.708;50.190;2024-02-04T03:08:37;97804.88;;;-9.41;78.90
54122;BME280;40029;58.708;50.190;2024-02-04T03:11:08;97803.22;;;-9.32;78.53
54122;BME280;40029;58.708;50.190;2024-02-04T03:13:39;97804.97;;;-9.24;78.72
54122;BME280;40029;58.708;50.190;2024-02-04T03:16:13;97809.28;;;-9.16;79.07
54122;BME280;40029;58.708;50.190;2024-02-04T03:19:05;97805.00;;;-9.18;79.53
54122;BME280;40029;58.708;50.190;2024-02-04T03:21:36;97815.28;;;-9.09;79.12
54122;BME280;40029;58.708;50.190;2024-02-04T03:24:26;97799.91;;;-9.12;78.82
54122;BME280;40029;58.708;50.190;2024-02-04T03:27:17;97796.53;;;-9.05;79.23
54122;BME280;40029;58.708;50.190;2024-02-04T03:29:49;97800.81;;;-8.93;79.07
54122;BME280;40029;58.708;50.190;2024-02-04T03:32:21;97810.19;;;-8.97;79.56
54122;BME280;40029;58.708;50.190;2024-02-04T03:34:52;97793.13;;;-9.01;79.01
54122;BME280;40029;58.708;50.190;2024-02-04T03:37:23;97792.28;;;-8.94;79.41
54122;BME280;40029;58.708;50.190;2024-02-04T03:39:55;97780.34;;;-8.93;79.01
54122;BME280;40029;58.708;50.190;2024-02-04T03:42:26;97802.44;;;-9.20;79.11
54122;BME280;40029;58.708;50.190;2024-02-04T03:44:57;97799.81;;;-9.32;78.69
54122;BME280;40029;58.708;50.190;2024-02-04T03:47:28;97801.50;;;-9.36;78.63
54122;BME280;40029;58.708;50.190;2024-02-04T03:49:59;97799.72;;;-9.44;79.06
54122;BME280;40029;58.708;50.190;2024-02-04T03:52:49;97800.59;;;-9.47;78.55
54122;BME280;40029;58.708;50.190;2024-02-04T03:55:21;97798.88;;;-9.46;79.05
54122;BME280;40029;58.708;50.190;2024-02-04T03:57:52;97800.59;;;-9.44;79.59
54122;BME280;40029;58.708;50.190;2024-02-04T04:00:23;97797.16;;;-9.44;79.54
54122;BME280;40029;58.708;50.190;2024-02-04T04:02:54;97801.41;;;-9.51;79.40
54122;BME280;40029;58.708;50.190;2024-02-04T04:05:44;97803.16;;;-9.44;79.84
54122;BME280;40029;58.708;50.190;2024-02-04T04:08:15;97809.13;;;-9.43;79.65
54122;BME280;40029;58.708;50.190;2024-02-04T04:10:47;97805.66;;;-9.56;80.19
54122;BME280;40029;58.708;50.190;2024-02-04T04:13:18;97801.41;;;-9.51;80.02
54122;BME280;40029;58.708;50.190;2024-02-04T04:15:50;97815.00;;;-9.64;79.81
54122;BME280;40029;58.708;50.190;2024-02-04T04:18:22;97802.25;;;-9.51;79.66
54122;BME280;40029;58.708;50.190;2024-02-04T04:20:53;97796.31;;;-9.46;79.77
54122;BME280;40029;58.708;50.190;2024-02-04T04:23:42;97781.88;;;-9.37;79.97
54122;BME280;40029;58.708;50.190;2024-02-04T04:26:14;97799.69;;;-9.54;79.60
54122;BME280;40029;58.708;50.190;2024-02-04T04:28:45;97786.94;;;-9.49;80.04
54122;BME280;40029;58.708;50.190;2024-02-04T04:31:16;97792.88;;;-9.48;79.79
54122;BME280;40029;58.708;50.190;2024-02-04T04:33:47;97796.28;;;-9.54;79.70
54122;BME280;40029;58.708;50.190;2024-02-04T04:36:18;97800.56;;;-9.50;79.47
54122;BME280;40029;58.708;50.190;2024-02-04T04:38:49;97801.38;;;-9.60;80.13
54122;BME280;40029;58.708;50.190;2024-02-04T04:41:21;97789.50;;;-9.46;80.29
54122;BME280;40029;58.708;50.190;2024-02-04T04:43:52;97798.94;;;-9.34;80.12
54122;BME280;40029;58.708;50.190;2024-02-04T04:46:23;97806.59;;;-9.39;80.00
54122;BME280;40029;58.708;50.190;2024-02-04T04:48:54;97806.66;;;-9.26;79.85
54122;BME280;40029;58.708;50.190;2024-02-04T04:51:28;97801.56;;;-9.20;79.04
54122;BME280;40029;58.708;50.190;2024-02-04T04:54:18;97810.94;;;-9.25;79.25
54122;BME280;40029;58.708;50.190;2024-02-04T04:56:49;97811.84;;;-9.14;79.15
54122;BME280;40029;58.708;50.190;2024-02-04T04:59:20;97805.91;;;-9.08;78.93
54122;BME280;40029;58.708;50.190;2024-02-04T05:01:52;97804.19;;;-9.02;80.06
54122;BME280;40029;58.708;50.190;2024-02-04T05:04:23;97799.97;;;-9.00;80.33
54122;BME280;40029;58.708;50.190;2024-02-04T05:06:56;97800.84;;;-8.88;80.39
54122;BME280;40029;58.708;50.190;2024-02-04T05:09:46;97797.44;;;-8.86;79.74
54122;BME280;40029;58.708;50.190;2024-02-04T05:12:17;97805.97;;;-8.85;79.29
54122;BME280;40029;58.708;50.190;2024-02-04T05:14:48;97795.72;;;-8.84;79.57
54122;BME280;40029;58.708;50.190;2024-02-04T05:17:19;97795.75;;;-8.82;79.19
54122;BME280;40029;58.708;50.190;2024-02-04T05:19:50;97800.00;;;-8.84;79.36
54122;BME280;40029;58.708;50.190;2024-02-04T05:22:40;97793.19;;;-8.81;79.10
54122;BME280;40029;58.708;50.190;2024-02-04T05:25:11;97798.34;;;-8.73;79.11
54122;BME280;40029;58.708;50.190;2024-02-04T05:28:01;97797.47;;;-8.74;80.02
54122;BME280;40029;58.708;50.190;2024-02-04T05:30:32;97793.22;;;-8.70;80.25
54122;BME280;40029;58.708;50.190;2024-02-04T05:33:03;97801.72;;;-8.82;80.26
54122;BME280;40029;58.708;50.190;2024-02-04T05:35:53;97800.06;;;-8.72;80.24
54122;BME280;40029;58.708;50.190;2024-02-04T05:38:24;97793.22;;;-8.64;80.14
54122;BME280;40029;58.708;50.190;2024-02-04T05:40:55;97798.34;;;-8.58;80.01
54122;BME280;40029;58.708;50.190;2024-02-04T05:43:45;97793.22;;;-8.64;80.23
54122;BME280;40029;58.708;50.190;2024-02-04T05:46:16;97800.06;;;-8.60;80.49
54122;BME280;40029;58.708;50.190;2024-02-04T05:49:05;97800.09;;;-8.57;80.28
54122;BME280;40029;58.708;50.190;2024-02-04T05:51:40;97808.63;;;-8.51;80.20
54122;BME280;40029;58.708;50.190;2024-02-04T05:54:12;97802.69;;;-8.44;79.83
54122;BME280;40029;58.708;50.190;2024-02-04T05:56:43;97802.66;;;-8.37;79.45
54122;BME280;40029;58.708;50.190;2024-02-04T05:59:15;97807.75;;;-8.40;79.23
54122;BME280;40029;58.708;50.190;2024-02-04T06:01:47;97813.78;;;-8.42;79.70
54122;BME280;40029;58.708;50.190;2024-02-04T06:04:37;97812.03;;;-8.36;79.16
54122;BME280;40029;58.708;50.190;2024-02-04T06:07:08;97818.06;;;-8.44;78.65
54122;BME280;40029;58.708;50.190;2024-02-04T06:09:39;97814.63;;;-8.51;78.97
54122;BME280;40029;58.708;50.190;2024-02-04T06:12:10;97821.44;;;-8.55;78.12
54122;BME280;40029;58.708;50.190;2024-02-04T06:14:42;97817.13;;;-8.71;78.30
54122;BME280;40029;58.708;50.190;2024-02-04T06:17:33;97821.41;;;-8.64;78.51
54122;BME280;40029;58.708;50.190;2024-02-04T06:20:04;97818.88;;;-8.61;79.11
54122;BME280;40029;58.708;50.190;2024-02-04T06:22:36;97824.84;;;-8.57;79.30
54122;BME280;40029;58.708;50.190;2024-02-04T06:25:07;97829.13;;;-8.61;81.39
54122;BME280;40029;58.708;50.190;2024-02-04T06:27:38;97828.25;;;-8.58;82.42
54122;BME280;40029;58.708;50.190;2024-02-04T06:30:11;97830.84;;;-8.57;83.06
54122;BME280;40029;58.708;50.190;2024-02-04T06:32:42;97841.03;;;-8.69;84.09
54122;BME280;40029;58.708;50.190;2024-02-04T06:35:13;97842.69;;;-8.82;84.96
54122;BME280;40029;58.708;50.190;2024-02-04T06:37:44;97839.28;;;-8.84;84.44
54122;BME280;40029;58.708;50.190;2024-02-04T06:40:15;97843.53;;;-8.87;84.96
54122;BME280;40029;58.708;50.190;2024-02-04T06:42:46;97837.66;;;-8.65;84.22
54122;BME280;40029;58.708;50.190;2024-02-04T06:45:18;97846.22;;;-8.50;83.10
54122;BME280;40029;58.708;50.190;2024-02-04T06:47:49;97848.81;;;-8.46;83.10
54122;BME280;40029;58.708;50.190;2024-02-04T06:50:20;97838.50;;;-8.64;83.05
54122;BME280;40029;58.708;50.190;2024-02-04T06:52:51;97846.25;;;-8.46;82.63
54122;BME280;40029;58.708;50.190;2024-02-04T06:55:22;97849.63;;;-8.48;82.91
54122;BME280;40029;58.708;50.190;2024-02-04T06:57:53;97846.25;;;-8.29;83.25
54122;BME280;40029;58.708;50.190;2024-02-04T07:00:24;97846.22;;;-8.38;82.52
54122;BME280;40029;58.708;50.190;2024-02-04T07:02:55;97843.66;;;-8.37;82.25
54122;BME280;40029;58.708;50.190;2024-02-04T07:05:27;97841.94;;;-8.30;82.54
54122;BME280;40029;58.708;50.190;2024-02-04T07:07:58;97848.81;;;-8.12;81.94
54122;BME280;40029;58.708;50.190;2024-02-04T07:10:29;97834.28;;;-8.02;82.32
54122;BME280;40029;58.708;50.190;2024-02-04T07:13:00;97838.59;;;-7.86;81.41
54122;BME280;40029;58.708;50.190;2024-02-04T07:15:50;97832.59;;;-7.77;80.90
54122;BME280;40029;58.708;50.190;2024-02-04T07:18:21;97825.75;;;-7.73;80.44
54122;BME280;40029;58.708;50.190;2024-02-04T07:20:53;97830.88;;;-7.73;79.84
54122;BME280;40029;58.708;50.190;2024-02-04T07:23:24;97830.88;;;-7.64;79.66
54122;BME280;40029;58.708;50.190;2024-02-04T07:25:55;97830.03;;;-7.59;79.25
54122;BME280;40029;58.708;50.190;2024-02-04T07:28:45;97826.59;;;-7.54;78.95
54122;BME280;40029;58.708;50.190;2024-02-04T07:31:35;97824.91;;;-7.54;79.16
54122;BME280;40029;58.708;50.190;2024-02-04T07:34:08;97817.16;;;-7.51;78.75
54122;BME280;40029;58.708;50.190;2024-02-04T07:36:39;97823.16;;;-7.49;78.87
54122;BME280;40029;58.708;50.190;2024-02-04T07:39:11;97818.84;;;-7.34;78.70
54122;BME280;40029;58.708;50.190;2024-02-04T07:42:00;97812.88;;;-7.33;78.40
54122;BME280;40029;58.708;50.190;2024-02-04T07:44:31;97822.31;;;-7.45;77.81
54122;BME280;40029;58.708;50.190;2024-02-04T07:47:03;97824.06;;;-7.56;78.42
54122;BME280;40029;58.708;50.190;2024-02-04T07:49:34;97816.34;;;-7.59;78.65
54122;BME280;40029;58.708;50.190;2024-02-04T07:52:05;97824.88;;;-7.52;78.33
54122;BME280;40029;58.708;50.190;2024-02-04T07:54:36;97825.72;;;-7.37;78.47
54122;BME280;40029;58.708;50.190;2024-02-04T07:57:07;97828.25;;;-7.26;77.67
54122;BME280;40029;58.708;50.190;2024-02-04T07:59:38;97823.97;;;-7.19;77.68
54122;BME280;40029;58.708;50.190;2024-02-04T08:02:28;97829.94;;;-7.11;77.11
54122;BME280;40029;58.708;50.190;2024-02-04T08:04:59;97825.59;;;-7.00;77.07
54122;BME280;40029;58.708;50.190;2024-02-04T08:07:31;97817.09;;;-7.06;77.29
54122;BME280;40029;58.708;50.190;2024-02-04T08:10:02;97819.59;;;-6.95;77.08
54122;BME280;40029;58.708;50.190;2024-02-04T08:12:34;97826.47;;;-7.02;77.11
54122;BME280;40029;58.708;50.190;2024-02-04T08:15:06;97819.59;;;-6.91;76.57
54122;BME280;40029;58.708;50.190;2024-02-04T08:17:56;97821.28;;;-6.84;77.18
54122;BME280;40029;58.708;50.190;2024-02-04T08:20:27;97819.59;;;-6.92;76.76
54122;BME280;40029;58.708;50.190;2024-02-04T08:22:59;97814.50;;;-6.99;76.44
54122;BME280;40029;58.708;50.190;2024-02-04T08:25:30;97817.09;;;-7.11;76.62
54122;BME280;40029;58.708;50.190;2024-02-04T08:28:01;97807.69;;;-7.21;77.41
54122;BME280;40029;58.708;50.190;2024-02-04T08:30:32;97806.00;;;-7.25;77.31
54122;BME280;40029;58.708;50.190;2024-02-04T08:33:03;97806.88;;;-7.29;77.36
54122;BME280;40029;58.708;50.190;2024-02-04T08:35:34;97800.00;;;-7.30;77.51
54122;BME280;40029;58.708;50.190;2024-02-04T08:38:05;97810.31;;;-7.37;77.70
54122;BME280;40029;58.708;50.190;2024-02-04T08:40:36;97803.44;;;-7.33;77.42
54122;BME280;40029;58.708;50.190;2024-02-04T08:43:07;97793.19;;;-7.31;77.61
54122;BME280;40029;58.708;50.190;2024-02-04T08:45:38;97797.44;;;-7.27;77.52
54122;BME280;40029;58.708;50.190;2024-02-04T08:48:09;97788.91;;;-7.26;77.90
54122;BME280;40029;58.708;50.190;2024-02-04T08:50:41;97784.59;;;-7.24;77.97
54122;BME280;40029;58.708;50.190;2024-02-04T08:53:12;97783.72;;;-7.17;77.79
54122;BME280;40029;58.708;50.190;2024-02-04T08:56:01;97784.50;;;-6.95;80.74
54122;BME280;40029;58.708;50.190;2024-02-04T08:58:32;97785.34;;;-6.93;80.90
54122;BME280;40029;58.708;50.190;2024-02-04T09:01:04;97791.25;;;-6.74;81.07
54122;BME280;40029;58.708;50.190;2024-02-04T09:03:36;97789.47;;;-6.63;79.40
54122;BME280;40029;58.708;50.190;2024-02-04T09:06:07;97780.06;;;-6.68;78.39
54122;BME280;40029;58.708;50.190;2024-02-04T09:08:57;97779.13;;;-6.49;78.53
54122;BME280;40029;58.708;50.190;2024-02-04T09:11:28;97779.91;;;-6.44;77.79
54122;BME280;40029;58.708;50.190;2024-02-04T09:13:59;97778.28;;;-6.54;77.71
54122;BME280;40029;58.708;50.190;2024-02-04T09:16:31;97780.06;;;-6.67;78.18
54122;BME280;40029;58.708;50.190;2024-02-04T09:19:02;97779.13;;;-6.53;77.77
54122;BME280;40029;58.708;50.190;2024-02-04T09:21:33;97774.03;;;-6.56;77.64
54122;BME280;40029;58.708;50.190;2024-02-04T09:24:04;97779.16;;;-6.56;77.88
54122;BME280;40029;58.708;50.190;2024-02-04T09:26:54;97768.81;;;-6.47;77.92
54122;BME280;40029;58.708;50.190;2024-02-04T09:29:25;97765.38;;;-6.43;77.29
54122;BME280;40029;58.708;50.190;2024-02-04T09:31:57;97765.38;;;-6.49;77.49
54122;BME280;40029;58.708;50.190;2024-02-04T09:34:28;97770.41;;;-6.31;77.39
54122;BME280;40029;58.708;50.190;2024-02-04T09:37:18;97763.38;;;-6.06;76.78
54122;BME280;40029;58.708;50.190;2024-02-04T09:39:49;97762.59;;;-6.14;76.40
54122;BME280;40029;58.708;50.190;2024-02-04T09:42:21;97762.53;;;-6.11;76.27
54122;BME280;40029;58.708;50.190;2024-02-04T09:44:53;97765.09;;;-6.09;76.54
54122;BME280;40029;58.708;50.190;2024-02-04T09:47:24;97754.72;;;-5.95;76.22
54122;BME280;40029;58.708;50.190;2024-02-04T09:49:56;97765.75;;;-5.84;75.98
54122;BME280;40029;58.708;50.190;2024-02-04T09:52:29;97754.63;;;-5.91;75.87
54122;BME280;40029;58.708;50.190;2024-02-04T09:55:04;97760.53;;;-5.79;75.80
54122;BME280;40029;58.708;50.190;2024-02-04T09:57:38;97757.09;;;-5.78;75.27
54122;BME280;40029;58.708;50.190;2024-02-04T10:00:09;97759.03;;;-6.00;75.94
54122;BME280;40029;58.708;50.190;2024-02-04T10:02:44;97748.56;;;-5.84;75.74
54122;BME280;40029;58.708;50.190;2024-02-04T10:05:16;97750.13;;;-5.66;75.61
54122;BME280;40029;58.708;50.190;2024-02-04T10:07:47;97754.34;;;-5.60;75.37
54122;BME280;40029;58.708;50.190;2024-02-04T10:10:18;97748.22;;;-5.48;75.28
54122;BME280;40029;58.708;50.190;2024-02-04T10:12:49;97753.13;;;-5.24;75.17
54122;BME280;40029;58.708;50.190;2024-02-04T10:15:21;97759.84;;;-5.15;75.08
54122;BME280;40029;58.708;50.190;2024-02-04T10:17:52;97747.81;;;-5.13;74.14
54122;BME280;40029;58.708;50.190;2024-02-04T10:20:43;97750.34;;;-5.07;74.45
54122;BME280;40029;58.708;50.190;2024-02-04T10:23:15;97758.00;;;-5.02;73.46
54122;BME280;40029;58.708;50.190;2024-02-04T10:25:46;97754.53;;;-4.99;73.58
54122;BME280;40029;58.708;50.190;2024-02-04T10:28:37;97756.44;;;-5.14;73.54
54122;BME280;40029;58.708;50.190;2024-02-04T10:31:08;97759.91;;;-5.16;72.89
54122;BME280;40029;58.708;50.190;2024-02-04T10:33:40;97765.91;;;-5.16;73.76
54122;BME280;40029;58.708;50.190;2024-02-04T10:36:11;97759.78;;;-5.07;74.05
54122;BME280;40029;58.708;50.190;2024-02-04T10:38:43;97763.16;;;-5.02;74.01
54122;BME280;40029;58.708;50.190;2024-02-04T10:41:15;97758.75;;;-4.92;73.13
54122;BME280;40029;58.708;50.190;2024-02-04T10:44:06;97757.88;;;-4.91;73.32
54122;BME280;40029;58.708;50.190;2024-02-04T10:46:39;97755.50;;;-5.10;73.16
54122;BME280;40029;58.708;50.190;2024-02-04T10:49:14;97763.38;;;-5.20;73.90
54122;BME280;40029;58.708;50.190;2024-02-04T10:51:46;97761.91;;;-5.46;73.80
54122;BME280;40029;58.708;50.190;2024-02-04T10:54:19;97769.66;;;-5.46;74.37
54122;BME280;40029;58.708;50.190;2024-02-04T10:57:05;97761.19;;;-5.59;74.76
54122;BME280;40029;58.708;50.190;2024-02-04T10:59:40;97754.34;;;-5.57;75.03
54122;BME280;40029;58.708;50.190;2024-02-04T11:02:12;97759.50;;;-5.60;74.85
54122;BME280;40029;58.708;50.190;2024-02-04T11:04:43;97759.59;;;-5.71;74.90
54122;BME280;40029;58.708;50.190;2024-02-04T11:07:17;97757.94;;;-5.76;74.99
54122;BME280;40029;58.708;50.190;2024-02-04T11:09:49;97766.41;;;-5.65;74.40
54122;BME280;40029;58.708;50.190;2024-02-04T11:12:41;97758.19;;;-6.01;74.92
54122;BME280;40029;58.708;50.190;2024-02-04T11:15:14;97766.59;;;-5.87;75.47
54122;BME280;40029;58.708;50.190;2024-02-04T11:17:50;97759.78;;;-5.91;75.82
54122;BME280;40029;58.708;50.190;2024-02-04T11:23:37;97762.28;;;-5.82;75.47
54122;BME280;40029;58.708;50.190;2024-02-04T11:26:10;97759.66;;;-5.75;75.48
54122;BME280;40029;58.708;50.190;2024-02-04T11:28:43;97754.44;;;-5.71;75.24
54122;BME280;40029;58.708;50.190;2024-02-04T11:31:17;97757.00;;;-5.69;75.01
54122;BME280;40029;58.708;50.190;2024-02-04T11:34:08;97758.75;;;-5.73;75.22
54122;BME280;40029;58.708;50.190;2024-02-04T11:36:39;97750.97;;;-5.68;74.66
54122;BME280;40029;58.708;50.190;2024-02-04T11:39:12;97752.81;;;-5.79;74.80
54122;BME280;40029;58.708;50.190;2024-02-04T11:42:14;97746.84;;;-5.85;74.58
54122;BME280;40029;58.708;50.190;2024-02-04T11:44:46;97742.72;;;-5.98;74.65
54122;BME280;40029;58.708;50.190;2024-02-04T11:47:37;97737.56;;;-5.98;74.66
54122;BME280;40029;58.708;50.190;2024-02-04T11:50:08;97745.28;;;-5.96;74.60
54122;BME280;40029;58.708;50.190;2024-02-04T11:52:40;97743.59;;;-5.97;74.79
54122;BME280;40029;58.708;50.190;2024-02-04T11:55:15;97734.06;;;-5.92;74.86
54122;BME280;40029;58.708;50.190;2024-02-04T11:58:05;97731.56;;;-5.95;74.74
54122;BME280;40029;58.708;50.190;2024-02-04T12:00:37;97723.84;;;-5.97;74.81
54122;BME280;40029;58.708;50.190;2024-02-04T12:03:32;97712.00;;;-6.16;74.47
54122;BME280;40029;58.708;50.190;2024-02-04T12:06:04;97710.25;;;-6.11;75.05
54122;BME280;40029;58.708;50.190;2024-02-04T12:08:37;97706.75;;;-6.04;74.26
54122;BME280;40029;58.708;50.190;2024-02-04T12:11:09;97702.53;;;-6.11;74.50
54122;BME280;40029;58.708;50.190;2024-02-04T12:13:40;97699.97;;;-6.13;74.84
54122;BME280;40029;58.708;50.190;2024-02-04T12:16:13;97700.88;;;-6.20;74.91
54122;BME280;40029;58.708;50.190;2024-02-04T12:18:49;97694.78;;;-6.08;74.54
54122;BME280;40029;58.708;50.190;2024-02-04T12:21:20;97696.56;;;-6.16;74.57
54122;BME280;40029;58.708;50.190;2024-02-04T12:23:52;97692.22;;;-6.08;74.86
54122;BME280;40029;58.708;50.190;2024-02-04T12:26:23;97687.84;;;-6.02;74.41
54122;BME280;40029;58.708;50.190;2024-02-04T12:28:55;97683.66;;;-6.12;75.11
54122;BME280;40029;58.708;50.190;2024-02-04T12:31:26;97679.38;;;-6.14;75.33
54122;BME280;40029;58.708;50.190;2024-02-04T12:34:02;97678.47;;;-6.07;75.35
54122;BME280;40029;58.708;50.190;2024-02-04T12:36:33;97675.06;;;-6.11;75.26
54122;BME280;40029;58.708;50.190;2024-02-04T12:39:04;97672.56;;;-6.18;75.42
54122;BME280;40029;58.708;50.190;2024-02-04T12:41:38;97671.66;;;-6.13;75.53
54122;BME280;40029;58.708;50.190;2024-02-04T12:44:09;97667.34;;;-6.08;75.46
54122;BME280;40029;58.708;50.190;2024-02-04T12:46:41;97673.38;;;-6.12;75.60
54122;BME280;40029;58.708;50.190;2024-02-04T12:49:30;97667.38;;;-6.12;75.28
54122;BME280;40029;58.708;50.190;2024-02-04T12:52:05;97670.88;;;-6.19;75.79
54122;BME280;40029;58.708;50.190;2024-02-04T12:54:43;97675.13;;;-6.14;75.43
54122;BME280;40029;58.708;50.190;2024-02-04T12:57:23;97673.38;;;-6.10;75.27
54122;BME280;40029;58.708;50.190;2024-02-04T13:00:04;97660.53;;;-6.16;75.56
54122;BME280;40029;58.708;50.190;2024-02-04T13:02:37;97659.72;;;-6.18;75.71
54122;BME280;40029;58.708;50.190;2024-02-04T13:05:09;97664.03;;;-6.21;75.60
54122;BME280;40029;58.708;50.190;2024-02-04T13:08:01;97667.50;;;-6.23;75.75
54122;BME280;40029;58.708;50.190;2024-02-04T13:10:36;97667.44;;;-6.18;75.52
54122;BME280;40029;58.708;50.190;2024-02-04T13:13:09;97669.22;;;-6.27;76.01
54122;BME280;40029;58.708;50.190;2024-02-04T13:15:43;97665.00;;;-6.35;76.04
54122;BME280;40029;58.708;50.190;2024-02-04T13:18:14;97669.25;;;-6.33;75.77
54122;BME280;40029;58.708;50.190;2024-02-04T13:20:48;97663.34;;;-6.39;76.10
54122;BME280;40029;58.708;50.190;2024-02-04T13:23:19;97662.44;;;-6.37;76.46
54122;BME280;40029;58.708;50.190;2024-02-04T13:26:09;97664.19;;;-6.39;75.97
54122;BME280;40029;58.708;50.190;2024-02-04T13:28:40;97659.84;;;-6.34;76.15
54122;BME280;40029;58.708;50.190;2024-02-04T13:31:11;97659.03;;;-6.36;76.01
54122;BME280;40029;58.708;50.190;2024-02-04T13:33:42;97658.06;;;-6.26;76.26
54122;BME280;40029;58.708;50.190;2024-02-04T13:36:32;97656.47;;;-6.42;76.35
54122;BME280;40029;58.708;50.190;2024-02-04T13:39:03;97649.66;;;-6.43;76.23